createdAt,value
2022-09-11T00:02:31.512Z,12.00
2022-09-11T00:07:35.212Z,12.01
2022-09-11T00:12:38.423Z,12.00
2022-09-11T00:17:41.835Z,12.03
2022-09-11T00:22:45.350Z,12.04
2022-09-11T00:27:49.172Z,12.05
2022-09-11T00:32:52.482Z,12.05
2022-09-11T00:37:55.997Z,12.11
2022-09-11T00:42:59.513Z,12.13
2022-09-11T00:48:04.360Z,12.14
2022-09-11T00:53:10.312Z,12.12
2022-09-11T00:58:18.986Z,12.07
2022-09-11T01:03:23.828Z,12.05
2022-09-11T01:08:28.049Z,12.02
2022-09-11T01:13:40.171Z,12.02
2022-09-11T01:19:16.557Z,11.95
2022-09-11T01:24:29.799Z,11.90
2022-09-11T01:29:55.838Z,11.79
2022-09-11T01:35:12.909Z,11.71
2022-09-11T01:40:41.584Z,11.59
2022-09-11T01:45:47.735Z,11.49
2022-09-11T01:50:53.541Z,11.41
2022-09-11T01:56:06.051Z,11.39
2022-09-11T02:01:36.602Z,11.40
2022-09-11T02:06:52.813Z,11.37
2022-09-11T02:11:58.480Z,11.35
2022-09-11T02:17:07.115Z,11.37
2022-09-11T02:22:10.527Z,11.40
2022-09-11T02:27:18.970Z,11.40
2022-09-11T02:32:23.294Z,11.40
2022-09-11T02:37:45.855Z,11.41
2022-09-11T02:43:13.946Z,11.41
2022-09-11T02:48:26.474Z,11.38
2022-09-11T02:53:35.519Z,11.37
2022-09-11T02:58:55.727Z,11.39
2022-09-11T03:03:59.651Z,11.35
2022-09-11T03:09:03.165Z,11.34
2022-09-11T03:14:06.580Z,11.32
2022-09-11T03:19:10.298Z,11.30
2022-09-11T03:24:14.737Z,11.30
2022-09-11T03:29:17.946Z,11.27
2022-09-11T03:34:21.358Z,11.29
2022-09-11T03:39:24.873Z,11.31
2022-09-11T03:44:28.185Z,11.36
2022-09-11T03:49:31.495Z,11.38
2022-09-11T03:54:35.830Z,11.44
2022-09-11T03:59:39.451Z,11.45
2022-09-11T04:04:42.964Z,11.43
2022-09-11T04:09:46.787Z,11.41
2022-09-11T04:14:50.711Z,11.38
2022-09-11T04:19:53.917Z,11.35
2022-09-11T04:24:57.945Z,11.35
2022-09-11T04:30:01.052Z,11.32
2022-09-11T04:35:04.878Z,11.33
2022-09-11T04:40:10.279Z,11.35
2022-09-11T04:45:13.545Z,11.38
2022-09-11T04:50:16.856Z,11.40
2022-09-11T04:55:20.167Z,11.39
2022-09-11T05:00:23.479Z,11.39
2022-09-11T05:05:26.787Z,11.39
2022-09-11T05:10:30.410Z,11.39
2022-09-11T05:15:34.330Z,11.39
2022-09-11T05:20:38.157Z,11.42
2022-09-11T05:25:41.463Z,11.47
2022-09-11T05:30:45.286Z,11.52
2022-09-11T05:35:48.596Z,11.53
2022-09-11T05:40:52.522Z,11.56
2022-09-11T05:45:57.456Z,11.64
2022-09-11T05:51:04.165Z,11.76
2022-09-11T05:56:16.069Z,11.82
2022-09-11T06:01:24.143Z,11.96
2022-09-11T06:06:27.820Z,12.22
2022-09-11T06:11:32.357Z,12.41
2022-09-11T06:16:36.120Z,12.48
2022-09-11T06:21:39.495Z,12.44
2022-09-11T06:26:46.894Z,12.48
2022-09-11T06:31:51.640Z,12.52
2022-09-11T06:36:56.075Z,12.65
2022-09-11T06:42:00.412Z,12.85
2022-09-11T06:47:04.245Z,13.13
2022-09-11T06:52:07.446Z,13.32
2022-09-11T06:57:10.855Z,13.51
2022-09-11T07:02:16.579Z,13.60
2022-09-11T07:07:19.934Z,13.71
2022-09-11T07:12:24.276Z,13.81
2022-09-11T07:17:27.476Z,13.91
2022-09-11T07:22:35.292Z,14.01
2022-09-11T07:27:38.706Z,14.03
2022-09-11T07:32:42.017Z,14.12
2022-09-11T07:37:50.201Z,14.20
2022-09-11T07:42:54.281Z,14.27
2022-09-11T07:47:57.990Z,14.37
2022-09-11T07:53:01.303Z,14.48
2022-09-11T07:58:04.508Z,14.64
2022-09-11T08:03:08.023Z,14.76
2022-09-11T08:08:11.295Z,14.94
2022-09-11T08:13:14.562Z,15.11
2022-09-11T08:18:17.955Z,15.31
2022-09-11T08:23:24.442Z,15.37
2022-09-11T08:28:27.854Z,15.35
2022-09-11T08:33:33.525Z,15.32
2022-09-11T08:38:39.900Z,15.31
2022-09-11T08:43:54.479Z,15.39
2022-09-11T08:49:02.500Z,15.58
2022-09-11T08:54:07.549Z,15.56
2022-09-11T08:59:19.770Z,15.62
2022-09-11T09:05:05.783Z,15.69
2022-09-11T09:10:32.232Z,15.86
2022-09-11T09:15:38.654Z,16.12
2022-09-11T09:21:01.290Z,16.34
2022-09-11T09:26:04.489Z,16.41
2022-09-11T09:31:11.040Z,16.61
2022-09-11T09:36:14.491Z,16.66
2022-09-11T09:41:23.638Z,16.60
2022-09-11T09:46:47.482Z,16.75
2022-09-11T09:52:04.515Z,16.84
2022-09-11T09:57:11.906Z,16.90
2022-09-11T10:02:37.967Z,16.91
2022-09-11T10:08:11.738Z,16.66
2022-09-11T10:13:25.183Z,16.59
2022-09-11T10:18:43.026Z,16.63
2022-09-11T10:23:51.878Z,16.64
2022-09-11T10:28:59.898Z,16.66
2022-09-11T10:34:05.364Z,16.63
2022-09-11T10:39:19.525Z,16.77
2022-09-11T10:44:23.348Z,16.83
2022-09-11T10:49:26.354Z,16.90
2022-09-11T10:54:38.468Z,16.90
2022-09-11T11:00:16.088Z,17.06
2022-09-11T11:05:30.662Z,17.27
2022-09-11T11:10:51.513Z,17.46
2022-09-11T11:16:12.759Z,17.56
2022-09-11T11:21:39.882Z,17.65
2022-09-11T11:27:22.616Z,17.80
2022-09-11T11:33:03.714Z,17.88
2022-09-11T11:38:28.323Z,17.83
2022-09-11T11:43:39.108Z,17.88
2022-09-11T11:48:51.430Z,17.92
2022-09-11T11:53:59.351Z,18.11
2022-09-11T11:59:27.441Z,18.03
2022-09-11T12:04:33.517Z,17.89
2022-09-11T12:24:03.034Z,17.77
2022-09-11T12:29:12.590Z,17.85
2022-09-11T12:34:24.878Z,17.86
2022-09-11T12:39:53.504Z,17.96
2022-09-11T12:44:59.855Z,17.97
2022-09-11T12:50:10.700Z,18.02
2022-09-11T12:55:50.656Z,18.20
2022-09-11T13:01:08.966Z,18.42
2022-09-11T13:06:13.891Z,18.51
2022-09-11T13:11:45.031Z,18.50
2022-09-11T13:16:49.265Z,18.32
2022-09-11T13:21:53.597Z,18.18
2022-09-11T13:27:08.669Z,17.99
2022-09-11T13:32:17.012Z,17.75
2022-09-11T13:37:49.099Z,17.54
2022-09-11T13:42:53.329Z,17.70
2022-09-11T13:47:58.211Z,17.95
2022-09-11T13:53:01.795Z,18.09
2022-09-11T13:58:23.782Z,18.24
2022-09-11T14:03:31.764Z,18.22
2022-09-11T14:08:36.608Z,17.97
2022-09-11T14:14:06.954Z,17.69
2022-09-11T14:19:21.838Z,17.68
2022-09-11T14:24:38.768Z,18.02
2022-09-11T14:29:53.324Z,19.60
2022-09-11T14:34:56.550Z,22.35
2022-09-11T14:40:21.467Z,25.37
2022-09-11T14:45:26.361Z,26.95
2022-09-11T14:50:31.263Z,27.87
2022-09-11T14:55:34.891Z,29.12
2022-09-11T15:00:38.294Z,30.46
2022-09-11T15:05:45.232Z,30.93
2022-09-11T15:10:49.318Z,29.32
2022-09-11T15:15:52.470Z,29.81
2022-09-11T15:20:56.041Z,32.39
2022-09-11T15:26:02.685Z,33.83
2022-09-11T15:31:06.326Z,33.79
2022-09-11T15:36:10.071Z,32.50
2022-09-11T15:41:13.280Z,33.40
2022-09-11T15:46:19.331Z,34.57
2022-09-11T15:51:25.960Z,36.01
2022-09-11T15:56:30.174Z,34.91
2022-09-11T16:01:35.695Z,34.33
2022-09-11T16:06:42.393Z,33.49
2022-09-11T16:11:48.114Z,32.44
2022-09-11T16:16:52.753Z,30.25
2022-09-11T16:21:58.095Z,28.35
2022-09-11T16:27:02.018Z,28.51
2022-09-11T16:32:06.687Z,28.84
2022-09-11T16:37:11.303Z,28.26
2022-09-11T16:42:14.933Z,27.09
2022-09-11T16:47:18.538Z,25.77
2022-09-11T16:52:21.849Z,24.15
2022-09-11T16:57:27.594Z,21.96
2022-09-11T17:02:30.929Z,19.75
2022-09-11T17:07:35.982Z,17.89
2022-09-11T17:12:39.394Z,16.67
2022-09-11T17:17:43.827Z,15.78
2022-09-11T17:22:47.147Z,15.13
2022-09-11T17:27:50.962Z,14.62
2022-09-11T17:32:54.290Z,14.21
2022-09-11T17:38:01.410Z,13.88
2022-09-11T17:43:05.400Z,13.66
2022-09-11T17:48:09.224Z,13.46
2022-09-11T17:53:12.432Z,13.25
2022-09-11T17:58:16.765Z,13.12
2022-09-11T18:03:22.947Z,12.98
2022-09-11T18:08:27.073Z,12.88
2022-09-11T18:13:32.045Z,12.81
2022-09-11T18:18:35.844Z,12.71
2022-09-11T18:23:42.639Z,12.64
2022-09-11T18:28:47.178Z,12.54
2022-09-11T18:33:55.455Z,12.41
2022-09-11T18:39:04.358Z,12.29
2022-09-11T18:44:18.818Z,12.20
2022-09-11T18:49:24.793Z,12.09
2022-09-11T18:54:30.188Z,12.02
2022-09-11T18:59:34.380Z,11.90
2022-09-11T19:04:38.005Z,11.80
2022-09-11T19:09:45.706Z,11.76
2022-09-11T19:14:49.434Z,11.63
2022-09-11T19:19:54.595Z,11.56
2022-09-11T19:24:59.789Z,11.50
2022-09-11T19:30:06.582Z,11.45
2022-09-11T19:35:10.972Z,11.41
2022-09-11T19:40:14.427Z,11.36
2022-09-11T19:45:17.934Z,11.29
2022-09-11T19:50:23.872Z,11.22
2022-09-11T19:55:28.309Z,11.18
2022-09-11T20:00:31.656Z,11.16
2022-09-11T20:05:34.934Z,11.20
2022-09-11T20:10:40.949Z,11.24
2022-09-11T20:15:45.752Z,11.29
2022-09-11T20:20:51.929Z,11.25
2022-09-11T20:25:55.343Z,11.22
2022-09-11T20:31:00.409Z,11.20
2022-09-11T20:36:04.013Z,11.27
2022-09-11T20:41:08.552Z,11.35
2022-09-11T20:46:11.893Z,11.41
2022-09-11T20:51:49.067Z,11.40
2022-09-11T20:56:52.275Z,11.41
2022-09-11T21:01:55.615Z,11.42
2022-09-11T21:07:00.585Z,11.46
2022-09-11T21:12:04.363Z,11.47
2022-09-11T21:17:07.669Z,11.45
2022-09-11T21:22:11.291Z,11.42
2022-09-11T21:27:14.805Z,11.41
2022-09-11T21:32:18.216Z,11.38
2022-09-11T21:37:21.935Z,11.27
2022-09-11T21:42:25.254Z,11.12
2022-09-11T21:47:28.456Z,11.01
2022-09-11T21:52:31.971Z,10.91
2022-09-11T21:57:35.281Z,10.80
2022-09-11T22:02:38.901Z,10.73
2022-09-11T22:07:42.827Z,10.69
2022-09-11T22:12:46.237Z,10.62
2022-09-11T22:17:49.652Z,10.50
2022-09-11T22:22:56.649Z,10.41
2022-09-11T22:28:00.163Z,10.35
2022-09-11T22:33:03.472Z,10.29
2022-09-11T22:38:06.684Z,10.26
2022-09-11T22:43:10.503Z,10.19
2022-09-11T22:48:13.764Z,10.08
2022-09-11T22:53:17.333Z,10.00
2022-09-11T22:58:21.448Z,9.92
2022-09-11T23:03:24.780Z,9.85
2022-09-11T23:08:38.427Z,9.78
2022-09-11T23:13:43.167Z,9.76
2022-09-11T23:18:46.610Z,9.71
2022-09-11T23:23:54.980Z,9.71
2022-09-11T23:28:58.734Z,9.69
2022-09-11T23:34:05.080Z,9.62
2022-09-11T23:39:08.559Z,9.54
2022-09-11T23:44:12.256Z,9.47
2022-09-11T23:49:16.379Z,9.44
2022-09-11T23:54:19.894Z,9.41
2022-09-11T23:59:23.102Z,9.37
